首页
METAR-TAF:

METAR-TAF

机场 :

利物浦约翰·列侬机场

利物浦, 英格兰

纬度: 53-20N, 经度: 002-51W, 海拔: 26米

当前天气观测

该预报发布于37分钟前的07:50 UTC
风速7节,风向东转东北
温度 18°C
湿度 49%
气压 1026 hPa
能见度10公里或以上
1500米以下无云,无积雨云

METAR: EGGP 010750Z 06007KT CAVOK 18/07 Q1026

时间: 09:27 (08:27 UTC)

预报

该预报发布于3小时和31分钟前的04:56 UTC
预报有效从01日的 06点(UTC)到 02日的 06点(UTC)
风速9节,风向
能见度10公里或以上
1500米以下无云,无积雨云

TAF: EGGP 010456Z 0106/0206 08009KT CAVOK

超过4000个机场的气象观测和天气预报(METAR&TAF报告)。

可查询的气象台以黄色和红色小点在地图上表示。

将鼠标移到小点上方,可查看气象台名称。

然后点击查看天气观测和预报。

如需切换地图:点击带黑十字的绿色按钮放大地图;点击带横线的绿色按钮缩小地图;或者点击绿色箭头查看邻近地区的地图。


METAR-TAF: